sensor_id;sensor_type;location;lat;lon;timestamp;temperature;humidity
24374;DHT22;12498;50.880;12.096;2024-02-23T00:01:26;11.50;97.70
24374;DHT22;12498;50.880;12.096;2024-02-23T00:03:51;11.50;78.40
24374;DHT22;12498;50.880;12.096;2024-02-23T00:06:17;11.30;85.90
24374;DHT22;12498;50.880;12.096;2024-02-23T00:08:42;11.30;46.20
24374;DHT22;12498;50.880;12.096;2024-02-23T00:11:08;11.40;11.50
24374;DHT22;12498;50.880;12.096;2024-02-23T00:13:33;11.30;9.10
24374;DHT22;12498;50.880;12.096;2024-02-23T00:15:59;11.30;1.00
24374;DHT22;12498;50.880;12.096;2024-02-23T00:18:24;11.30;1.00
24374;DHT22;12498;50.880;12.096;2024-02-23T00:20:50;11.30;1.00
24374;DHT22;12498;50.880;12.096;2024-02-23T00:23:15;11.10;1.00
24374;DHT22;12498;50.880;12.096;2024-02-23T00:25:41;11.20;1.00
24374;DHT22;12498;50.880;12.096;2024-02-23T00:28:07;11.20;1.00
24374;DHT22;12498;50.880;12.096;2024-02-23T00:30:33;11.20;1.00
24374;DHT22;12498;50.880;12.096;2024-02-23T00:32:58;11.10;1.00
24374;DHT22;12498;50.880;12.096;2024-02-23T00:35:24;11.30;1.00
24374;DHT22;12498;50.880;12.096;2024-02-23T00:37:49;11.10;1.00
24374;DHT22;12498;50.880;12.096;2024-02-23T00:40:15;11.10;1.00
24374;DHT22;12498;50.880;12.096;2024-02-23T00:42:41;11.10;1.00
24374;DHT22;12498;50.880;12.096;2024-02-23T00:45:06;11.00;1.00
24374;DHT22;12498;50.880;12.096;2024-02-23T00:47:32;11.00;1.00
24374;DHT22;12498;50.880;12.096;2024-02-23T00:49:57;11.00;1.00
24374;DHT22;12498;50.880;12.096;2024-02-23T00:52:23;11.00;1.00
24374;DHT22;12498;50.880;12.096;2024-02-23T00:54:48;10.70;1.00
24374;DHT22;12498;50.880;12.096;2024-02-23T00:57:14;10.90;1.00
24374;DHT22;12498;50.880;12.096;2024-02-23T00:59:41;10.90;1.00
24374;DHT22;12498;50.880;12.096;2024-02-23T01:02:06;10.80;1.00
24374;DHT22;12498;50.880;12.096;2024-02-23T01:04:32;10.90;27.50
24374;DHT22;12498;50.880;12.096;2024-02-23T01:06:58;10.90;15.20
24374;DHT22;12498;50.880;12.096;2024-02-23T01:09:23;10.80;99.90
24374;DHT22;12498;50.880;12.096;2024-02-23T01:11:49;10.90;1.00
24374;DHT22;12498;50.880;12.096;2024-02-23T01:14:14;10.60;1.00
24374;DHT22;12498;50.880;12.096;2024-02-23T01:16:40;10.90;1.00
24374;DHT22;12498;50.880;12.096;2024-02-23T01:19:05;10.70;1.00
24374;DHT22;12498;50.880;12.096;2024-02-23T01:21:31;10.80;99.90
24374;DHT22;12498;50.880;12.096;2024-02-23T01:23:56;10.80;99.90
24374;DHT22;12498;50.880;12.096;2024-02-23T01:26:23;10.60;99.90
24374;DHT22;12498;50.880;12.096;2024-02-23T01:28:48;10.70;99.90
24374;DHT22;12498;50.880;12.096;2024-02-23T01:31:14;10.70;99.90
24374;DHT22;12498;50.880;12.096;2024-02-23T01:33:39;10.50;99.90
24374;DHT22;12498;50.880;12.096;2024-02-23T01:38:31;10.50;99.90
24374;DHT22;12498;50.880;12.096;2024-02-23T01:41:00;10.60;1.30
24374;DHT22;12498;50.880;12.096;2024-02-23T01:43:26;10.50;99.90
24374;DHT22;12498;50.880;12.096;2024-02-23T01:53:09;10.30;99.90
24374;DHT22;12498;50.880;12.096;2024-02-23T02:00:27;10.10;59.50
24374;DHT22;12498;50.880;12.096;2024-02-23T02:07:45;9.70;99.90
24374;DHT22;12498;50.880;12.096;2024-02-23T02:10:12;9.70;99.90
24374;DHT22;12498;50.880;12.096;2024-02-23T02:12:38;9.60;99.90
24374;DHT22;12498;50.880;12.096;2024-02-23T02:15:03;9.50;1.00
24374;DHT22;12498;50.880;12.096;2024-02-23T02:17:29;9.30;99.90
24374;DHT22;12498;50.880;12.096;2024-02-23T02:19:55;9.40;99.90
24374;DHT22;12498;50.880;12.096;2024-02-23T02:22:21;9.40;99.90
24374;DHT22;12498;50.880;12.096;2024-02-23T02:24:47;9.30;1.00
24374;DHT22;12498;50.880;12.096;2024-02-23T02:27:13;9.30;1.00
24374;DHT22;12498;50.880;12.096;2024-02-23T02:29:39;9.20;1.00
24374;DHT22;12498;50.880;12.096;2024-02-23T02:34:30;9.00;99.90
24374;DHT22;12498;50.880;12.096;2024-02-23T02:36:56;9.10;99.90
24374;DHT22;12498;50.880;12.096;2024-02-23T02:39:21;9.00;99.90
24374;DHT22;12498;50.880;12.096;2024-02-23T02:41:50;9.00;99.90
24374;DHT22;12498;50.880;12.096;2024-02-23T02:44:15;8.90;99.90
24374;DHT22;12498;50.880;12.096;2024-02-23T02:46:41;9.00;99.90
24374;DHT22;12498;50.880;12.096;2024-02-23T02:49:07;8.90;99.90
24374;DHT22;12498;50.880;12.096;2024-02-23T02:51:32;8.70;99.90
24374;DHT22;12498;50.880;12.096;2024-02-23T03:01:16;8.90;99.90
24374;DHT22;12498;50.880;12.096;2024-02-23T03:03:41;8.70;99.90
24374;DHT22;12498;50.880;12.096;2024-02-23T03:06:07;8.70;99.90
24374;DHT22;12498;50.880;12.096;2024-02-23T03:08:33;8.50;1.00
24374;DHT22;12498;50.880;12.096;2024-02-23T03:10:58;8.60;1.00
24374;DHT22;12498;50.880;12.096;2024-02-23T03:13:24;8.70;1.00
24374;DHT22;12498;50.880;12.096;2024-02-23T03:15:49;8.60;1.00
24374;DHT22;12498;50.880;12.096;2024-02-23T03:18:15;8.60;1.00
24374;DHT22;12498;50.880;12.096;2024-02-23T03:20:41;8.50;1.00
24374;DHT22;12498;50.880;12.096;2024-02-23T03:23:07;8.40;1.00
24374;DHT22;12498;50.880;12.096;2024-02-23T03:25:32;8.40;1.00
24374;DHT22;12498;50.880;12.096;2024-02-23T03:27:58;8.40;1.00
24374;DHT22;12498;50.880;12.096;2024-02-23T03:30:23;8.30;1.00
24374;DHT22;12498;50.880;12.096;2024-02-23T03:32:49;8.30;1.00
24374;DHT22;12498;50.880;12.096;2024-02-23T03:35:15;8.30;99.90
24374;DHT22;12498;50.880;12.096;2024-02-23T04:09:24;8.00;99.90
24374;DHT22;12498;50.880;12.096;2024-02-23T04:11:50;7.90;99.90
24374;DHT22;12498;50.880;12.096;2024-02-23T04:14:15;7.90;99.90
24374;DHT22;12498;50.880;12.096;2024-02-23T04:43:25;7.70;99.90
24374;DHT22;12498;50.880;12.096;2024-02-23T04:45:51;7.80;99.90
24374;DHT22;12498;50.880;12.096;2024-02-23T04:48:17;7.60;99.90
24374;DHT22;12498;50.880;12.096;2024-02-23T04:50:42;7.50;99.90
24374;DHT22;12498;50.880;12.096;2024-02-23T06:28:13;7.10;99.90
24374;DHT22;12498;50.880;12.096;2024-02-23T07:24:27;7.20;1.00
24374;DHT22;12498;50.880;12.096;2024-02-23T07:26:52;7.10;1.00
24374;DHT22;12498;50.880;12.096;2024-02-23T07:29:18;7.00;1.00
24374;DHT22;12498;50.880;12.096;2024-02-23T07:31:44;7.10;1.00
24374;DHT22;12498;50.880;12.096;2024-02-23T07:34:10;7.30;1.00
24374;DHT22;12498;50.880;12.096;2024-02-23T07:36:35;7.20;1.00
24374;DHT22;12498;50.880;12.096;2024-02-23T07:39:01;7.20;1.00
24374;DHT22;12498;50.880;12.096;2024-02-23T07:41:26;7.20;1.00
24374;DHT22;12498;50.880;12.096;2024-02-23T07:43:52;7.30;1.00
24374;DHT22;12498;50.880;12.096;2024-02-23T07:46:17;7.20;1.00
24374;DHT22;12498;50.880;12.096;2024-02-23T07:48:43;7.20;1.00
24374;DHT22;12498;50.880;12.096;2024-02-23T07:51:09;7.20;1.00
24374;DHT22;12498;50.880;12.096;2024-02-23T07:53:34;7.20;31.90
24374;DHT22;12498;50.880;12.096;2024-02-23T07:56:00;7.10;40.60
24374;DHT22;12498;50.880;12.096;2024-02-23T07:58:27;7.10;66.30
24374;DHT22;12498;50.880;12.096;2024-02-23T08:00:53;7.10;74.00
24374;DHT22;12498;50.880;12.096;2024-02-23T08:03:19;7.20;93.10
24374;DHT22;12498;50.880;12.096;2024-02-23T08:05:44;7.20;91.40
24374;DHT22;12498;50.880;12.096;2024-02-23T08:08:10;7.40;79.90
24374;DHT22;12498;50.880;12.096;2024-02-23T08:10:35;7.50;85.40
24374;DHT22;12498;50.880;12.096;2024-02-23T08:13:01;7.50;92.70
24374;DHT22;12498;50.880;12.096;2024-02-23T08:15:27;7.50;90.80
24374;DHT22;12498;50.880;12.096;2024-02-23T08:17:52;7.60;99.90
24374;DHT22;12498;50.880;12.096;2024-02-23T08:20:18;7.60;99.90
24374;DHT22;12498;50.880;12.096;2024-02-23T08:22:43;7.70;99.90
24374;DHT22;12498;50.880;12.096;2024-02-23T08:25:09;7.80;94.10
24374;DHT22;12498;50.880;12.096;2024-02-23T08:27:34;7.80;94.90
24374;DHT22;12498;50.880;12.096;2024-02-23T08:30:00;7.80;87.30
24374;DHT22;12498;50.880;12.096;2024-02-23T08:32:25;7.70;96.00
24374;DHT22;12498;50.880;12.096;2024-02-23T08:34:51;7.80;98.30
24374;DHT22;12498;50.880;12.096;2024-02-23T08:37:18;7.70;99.90
24374;DHT22;12498;50.880;12.096;2024-02-23T08:39:43;7.70;99.90
24374;DHT22;12498;50.880;12.096;2024-02-23T08:42:09;7.70;99.90
24374;DHT22;12498;50.880;12.096;2024-02-23T08:44:35;7.80;99.90
24374;DHT22;12498;50.880;12.096;2024-02-23T08:47:01;7.70;99.90
24374;DHT22;12498;50.880;12.096;2024-02-23T08:49:27;7.80;43.70
24374;DHT22;12498;50.880;12.096;2024-02-23T08:51:52;7.80;46.30
24374;DHT22;12498;50.880;12.096;2024-02-23T08:54:18;7.60;99.90
24374;DHT22;12498;50.880;12.096;2024-02-23T08:56:43;7.70;99.90
24374;DHT22;12498;50.880;12.096;2024-02-23T08:59:09;7.80;99.90
24374;DHT22;12498;50.880;12.096;2024-02-23T09:01:35;7.90;99.90
24374;DHT22;12498;50.880;12.096;2024-02-23T09:11:18;7.80;67.40
24374;DHT22;12498;50.880;12.096;2024-02-23T09:13:43;7.80;71.90
24374;DHT22;12498;50.880;12.096;2024-02-23T09:18:35;7.70;99.90
24374;DHT22;12498;50.880;12.096;2024-02-23T09:21:01;7.90;99.90
24374;DHT22;12498;50.880;12.096;2024-02-23T09:25:52;7.70;99.90
24374;DHT22;12498;50.880;12.096;2024-02-23T09:28:17;7.70;99.90
24374;DHT22;12498;50.880;12.096;2024-02-23T09:30:43;8.00;99.90
24374;DHT22;12498;50.880;12.096;2024-02-23T14:59:39;9.00;99.90
24374;DHT22;12498;50.880;12.096;2024-02-23T20:54:04;5.90;1.00
24374;DHT22;12498;50.880;12.096;2024-02-23T20:56:32;6.00;99.90
24374;DHT22;12498;50.880;12.096;2024-02-23T20:59:00;6.10;1.00
24374;DHT22;12498;50.880;12.096;2024-02-23T21:01:25;6.10;1.00
24374;DHT22;12498;50.880;12.096;2024-02-23T21:03:51;6.00;1.00
24374;DHT22;12498;50.880;12.096;2024-02-23T21:06:16;6.00;1.00
24374;DHT22;12498;50.880;12.096;2024-02-23T21:08:44;6.00;31.40
24374;DHT22;12498;50.880;12.096;2024-02-23T21:11:09;6.00;1.00
24374;DHT22;12498;50.880;12.096;2024-02-23T21:13:37;6.10;99.90
24374;DHT22;12498;50.880;12.096;2024-02-23T21:18:29;5.90;37.30
24374;DHT22;12498;50.880;12.096;2024-02-23T21:20:55;5.70;68.00
24374;DHT22;12498;50.880;12.096;2024-02-23T21:23:21;5.90;48.40
24374;DHT22;12498;50.880;12.096;2024-02-23T21:25:46;5.80;50.90
24374;DHT22;12498;50.880;12.096;2024-02-23T21:28:12;5.80;99.90
24374;DHT22;12498;50.880;12.096;2024-02-23T21:30:37;5.80;99.90
24374;DHT22;12498;50.880;12.096;2024-02-23T21:33:10;5.70;99.90
24374;DHT22;12498;50.880;12.096;2024-02-23T21:35:35;5.70;99.90
24374;DHT22;12498;50.880;12.096;2024-02-23T21:38:01;5.80;99.90
24374;DHT22;12498;50.880;12.096;2024-02-23T21:40:27;5.70;99.90
24374;DHT22;12498;50.880;12.096;2024-02-23T21:42:52;5.90;99.90
24374;DHT22;12498;50.880;12.096;2024-02-23T21:45:18;5.60;99.90
24374;DHT22;12498;50.880;12.096;2024-02-23T21:47:43;5.50;99.90
24374;DHT22;12498;50.880;12.096;2024-02-23T21:50:09;5.80;99.90
24374;DHT22;12498;50.880;12.096;2024-02-23T21:52:35;5.70;99.90
24374;DHT22;12498;50.880;12.096;2024-02-23T21:55:04;5.70;99.90
24374;DHT22;12498;50.880;12.096;2024-02-23T21:57:30;5.70;99.90
24374;DHT22;12498;50.880;12.096;2024-02-23T22:02:22;5.70;99.90
24374;DHT22;12498;50.880;12.096;2024-02-23T22:04:56;5.60;99.90
24374;DHT22;12498;50.880;12.096;2024-02-23T22:07:22;5.70;99.90
24374;DHT22;12498;50.880;12.096;2024-02-23T22:09:48;5.50;1.00
24374;DHT22;12498;50.880;12.096;2024-02-23T22:12:18;5.40;1.00
24374;DHT22;12498;50.880;12.096;2024-02-23T22:14:44;5.50;1.00
24374;DHT22;12498;50.880;12.096;2024-02-23T22:17:09;5.30;1.00
24374;DHT22;12498;50.880;12.096;2024-02-23T22:19:35;5.40;1.00
24374;DHT22;12498;50.880;12.096;2024-02-23T22:22:00;5.40;40.50
24374;DHT22;12498;50.880;12.096;2024-02-23T22:24:26;5.40;76.20
24374;DHT22;12498;50.880;12.096;2024-02-23T22:26:51;5.20;1.00
24374;DHT22;12498;50.880;12.096;2024-02-23T22:29:17;5.30;1.00
24374;DHT22;12498;50.880;12.096;2024-02-23T22:31:45;5.30;1.00
24374;DHT22;12498;50.880;12.096;2024-02-23T22:34:13;5.40;1.00
24374;DHT22;12498;50.880;12.096;2024-02-23T22:36:39;5.20;1.00
24374;DHT22;12498;50.880;12.096;2024-02-23T22:39:04;5.40;3.90
24374;DHT22;12498;50.880;12.096;2024-02-23T22:41:30;5.20;17.20
24374;DHT22;12498;50.880;12.096;2024-02-23T22:43:56;5.10;99.90
24374;DHT22;12498;50.880;12.096;2024-02-23T22:46:21;5.20;99.90
24374;DHT22;12498;50.880;12.096;2024-02-23T22:48:47;5.30;99.90
24374;DHT22;12498;50.880;12.096;2024-02-23T22:51:12;5.10;99.90
24374;DHT22;12498;50.880;12.096;2024-02-23T22:53:38;5.00;99.90
24374;DHT22;12498;50.880;12.096;2024-02-23T22:56:03;5.10;99.90
24374;DHT22;12498;50.880;12.096;2024-02-23T23:13:07;5.10;38.40
24374;DHT22;12498;50.880;12.096;2024-02-23T23:15:33;4.90;1.00
24374;DHT22;12498;50.880;12.096;2024-02-23T23:17:58;4.90;99.90
24374;DHT22;12498;50.880;12.096;2024-02-23T23:20:24;4.80;1.00
24374;DHT22;12498;50.880;12.096;2024-02-23T23:22:49;4.60;1.00
24374;DHT22;12498;50.880;12.096;2024-02-23T23:25:15;4.50;99.90
24374;DHT22;12498;50.880;12.096;2024-02-23T23:27:41;4.70;1.00
24374;DHT22;12498;50.880;12.096;2024-02-23T23:30:06;4.60;1.00
24374;DHT22;12498;50.880;12.096;2024-02-23T23:32:32;4.60;99.90
24374;DHT22;12498;50.880;12.096;2024-02-23T23:34:58;4.50;99.90
24374;DHT22;12498;50.880;12.096;2024-02-23T23:37:23;4.30;99.90
24374;DHT22;12498;50.880;12.096;2024-02-23T23:39:49;4.40;1.00
24374;DHT22;12498;50.880;12.096;2024-02-23T23:42:14;4.40;99.90
24374;DHT22;12498;50.880;12.096;2024-02-23T23:44:40;4.40;99.90
24374;DHT22;12498;50.880;12.096;2024-02-23T23:47:05;4.50;99.90
24374;DHT22;12498;50.880;12.096;2024-02-23T23:51:57;4.50;99.90
24374;DHT22;12498;50.880;12.096;2024-02-23T23:54:23;4.50;60.30
24374;DHT22;12498;50.880;12.096;2024-02-23T23:56:48;4.40;1.00
24374;DHT22;12498;50.880;12.096;2024-02-23T23:59:14;4.50;99.90
